createdAt,value
2019-03-03T00:00:44.757Z,18.42
2019-03-03T00:03:13.573Z,19.55
2019-03-03T00:05:42.263Z,23.85
2019-03-03T00:08:11.020Z,25.32
2019-03-03T00:10:39.783Z,16.80
2019-03-03T00:13:08.471Z,18.35
2019-03-03T00:15:37.217Z,23.50
2019-03-03T00:18:05.927Z,20.35
2019-03-03T00:20:37.480Z,22.52
2019-03-03T00:23:06.172Z,16.75
2019-03-03T00:25:34.859Z,20.37
2019-03-03T00:28:03.906Z,20.40
2019-03-03T00:30:32.832Z,26.20
2019-03-03T00:33:01.516Z,12.88
2019-03-03T00:35:31.660Z,25.68
2019-03-03T00:38:04.772Z,20.25
2019-03-03T00:40:43.996Z,18.62
2019-03-03T00:43:32.721Z,20.62
2019-03-03T00:46:05.906Z,28.50
2019-03-03T00:48:39.173Z,16.82
2019-03-03T00:51:24.987Z,19.37
2019-03-03T00:54:01.380Z,20.72
2019-03-03T00:56:34.539Z,21.73
2019-03-03T00:59:04.895Z,21.95
2019-03-03T01:01:53.188Z,20.25
2019-03-03T01:04:23.661Z,20.20
2019-03-03T01:06:56.404Z,22.25
2019-03-03T01:09:39.433Z,22.25
2019-03-03T01:12:12.608Z,19.82
2019-03-03T01:14:45.912Z,16.27
2019-03-03T01:17:16.178Z,16.97
2019-03-03T01:19:49.582Z,19.40
2019-03-03T01:22:19.908Z,17.57
2019-03-03T01:24:50.173Z,22.95
2019-03-03T01:27:18.862Z,18.60
2019-03-03T01:29:47.734Z,19.48
2019-03-03T01:32:16.953Z,22.98
2019-03-03T01:34:45.693Z,21.23
2019-03-03T01:37:14.427Z,14.85
2019-03-03T01:39:43.279Z,20.85
2019-03-03T01:42:11.975Z,20.17
2019-03-03T01:44:40.751Z,18.27
2019-03-03T01:47:09.451Z,17.45
2019-03-03T01:49:38.324Z,22.40
2019-03-03T01:52:07.071Z,13.45
2019-03-03T01:54:36.560Z,31.97
2019-03-03T01:57:05.270Z,17.75
2019-03-03T01:59:34.044Z,15.70
2019-03-03T02:02:02.726Z,21.57
2019-03-03T02:04:31.435Z,20.85
2019-03-03T02:07:00.158Z,19.15
2019-03-03T02:09:29.440Z,20.45
2019-03-03T02:11:58.144Z,13.30
2019-03-03T02:14:26.895Z,26.80
2019-03-03T02:16:55.583Z,27.32
2019-03-03T02:19:24.464Z,22.58
2019-03-03T02:21:53.138Z,25.10
2019-03-03T02:24:21.841Z,29.75
2019-03-03T02:26:50.843Z,17.45
2019-03-03T02:29:19.552Z,22.02
2019-03-03T02:31:48.239Z,28.95
2019-03-03T02:34:16.980Z,25.12
2019-03-03T02:36:45.679Z,20.65
2019-03-03T02:39:16.215Z,29.07
2019-03-03T02:41:44.974Z,23.67
2019-03-03T02:44:14.522Z,22.13
2019-03-03T02:46:43.213Z,27.22
2019-03-03T02:49:12.220Z,26.00
2019-03-03T02:51:40.906Z,24.35
2019-03-03T02:54:09.596Z,24.57
2019-03-03T02:56:38.340Z,22.32
2019-03-03T02:59:07.055Z,19.95
2019-03-03T03:01:43.152Z,28.12
2019-03-03T03:04:11.943Z,22.35
2019-03-03T03:06:42.198Z,23.07
2019-03-03T03:09:12.830Z,23.18
2019-03-03T03:11:49.134Z,24.67
2019-03-03T03:14:37.188Z,24.50
2019-03-03T03:17:10.195Z,20.52
2019-03-03T03:19:46.890Z,26.52
2019-03-03T03:22:19.909Z,20.37
2019-03-03T03:24:52.705Z,22.05
2019-03-03T03:27:28.778Z,28.80
2019-03-03T03:30:17.434Z,25.48
2019-03-03T03:32:47.710Z,25.27
2019-03-03T03:35:17.983Z,17.23
2019-03-03T03:37:51.023Z,22.32
2019-03-03T03:40:21.280Z,28.32
2019-03-03T03:43:06.884Z,26.68
2019-03-03T03:45:46.038Z,20.10
2019-03-03T03:48:19.121Z,23.55
2019-03-03T03:51:05.775Z,22.00
2019-03-03T03:53:45.137Z,24.52
2019-03-03T03:56:15.411Z,18.02
2019-03-03T03:58:51.307Z,20.20
2019-03-03T04:01:24.313Z,19.57
2019-03-03T04:03:57.375Z,19.85
2019-03-03T04:06:40.042Z,21.33
2019-03-03T04:09:25.209Z,18.57
2019-03-03T04:12:04.459Z,16.25
2019-03-03T04:14:37.810Z,20.65
2019-03-03T04:17:20.624Z,18.15
2019-03-03T04:19:50.933Z,21.17
2019-03-03T04:22:37.605Z,18.02
2019-03-03T04:25:22.908Z,24.47
2019-03-03T04:30:22.804Z,17.42
2019-03-03T04:33:05.125Z,17.17
2019-03-03T04:35:38.110Z,17.25
2019-03-03T04:38:11.628Z,21.80
2019-03-03T04:40:42.121Z,18.73
2019-03-03T04:43:12.589Z,15.70
2019-03-03T04:45:45.736Z,17.10
2019-03-03T04:48:15.994Z,18.07
2019-03-03T04:50:49.428Z,13.95
2019-03-03T04:53:28.505Z,15.18
2019-03-03T04:56:08.128Z,16.62
2019-03-03T04:58:41.125Z,17.15
2019-03-03T05:01:19.961Z,14.55
2019-03-03T05:03:53.179Z,16.75
2019-03-03T05:06:23.502Z,19.02
2019-03-03T05:09:02.664Z,13.90
2019-03-03T05:12:14.018Z,13.25
2019-03-03T05:14:44.121Z,12.60
2019-03-03T05:17:20.282Z,9.40
2019-03-03T05:19:50.683Z,10.28
2019-03-03T05:22:19.371Z,9.00
2019-03-03T05:24:48.135Z,9.75
2019-03-03T05:27:16.824Z,8.58
2019-03-03T05:29:45.702Z,8.08
2019-03-03T05:32:14.439Z,7.55
2019-03-03T05:34:43.123Z,8.73
2019-03-03T05:37:11.817Z,7.95
2019-03-03T05:39:40.997Z,7.03
2019-03-03T05:42:09.679Z,8.58
2019-03-03T05:44:38.421Z,6.75
2019-03-03T05:47:10.322Z,11.10
2019-03-03T05:49:39.584Z,9.93
2019-03-03T05:52:08.319Z,9.65
2019-03-03T05:54:37.018Z,13.38
2019-03-03T05:57:05.809Z,12.23
2019-03-03T05:59:34.579Z,10.65
2019-03-03T06:02:03.274Z,9.70
2019-03-03T06:04:31.953Z,9.75
2019-03-03T06:07:00.695Z,10.20
2019-03-03T06:09:29.670Z,11.90
2019-03-03T06:11:58.358Z,13.32
2019-03-03T06:14:27.093Z,11.28
2019-03-03T06:16:55.826Z,9.55
2019-03-03T06:19:24.646Z,14.80
2019-03-03T06:21:53.347Z,10.48
2019-03-03T06:24:22.077Z,9.88
2019-03-03T06:26:50.783Z,8.78
2019-03-03T06:29:19.743Z,8.63
2019-03-03T06:31:48.438Z,12.25
2019-03-03T06:34:17.133Z,13.40
2019-03-03T06:36:45.882Z,15.93
2019-03-03T06:39:15.321Z,13.18
2019-03-03T06:41:44.009Z,13.28
2019-03-03T06:44:13.143Z,11.85
2019-03-03T06:46:41.838Z,13.83
2019-03-03T06:49:10.537Z,11.85
2019-03-03T06:51:39.442Z,11.40
2019-03-03T06:54:08.118Z,13.75
2019-03-03T06:56:36.825Z,12.58
2019-03-03T06:59:05.566Z,16.32
2019-03-03T07:01:34.331Z,14.73
2019-03-03T07:04:03.110Z,12.68
2019-03-03T07:06:31.819Z,11.33
2019-03-03T07:09:00.560Z,10.55
2019-03-03T07:11:30.562Z,12.98
2019-03-03T07:14:01.724Z,16.30
2019-03-03T07:16:30.459Z,15.83
2019-03-03T07:18:59.211Z,14.18
2019-03-03T07:21:27.948Z,19.87
2019-03-03T07:23:56.675Z,16.30
2019-03-03T07:26:25.358Z,19.12
2019-03-03T07:28:54.046Z,16.35
2019-03-03T07:31:22.815Z,13.08
2019-03-03T07:33:52.992Z,18.42
2019-03-03T07:36:21.685Z,23.60
2019-03-03T07:38:50.436Z,18.50
2019-03-03T07:41:19.293Z,18.73
2019-03-03T07:43:48.000Z,21.25
2019-03-03T07:46:16.739Z,25.65
2019-03-03T07:48:45.433Z,20.15
2019-03-03T07:51:14.353Z,19.30
2019-03-03T07:53:43.419Z,21.05
2019-03-03T07:56:12.323Z,22.87
2019-03-03T07:58:41.302Z,21.52
2019-03-03T08:01:10.065Z,18.85
2019-03-03T08:03:38.762Z,16.90
2019-03-03T08:06:07.481Z,15.13
2019-03-03T08:08:36.671Z,20.12
2019-03-03T08:11:05.720Z,18.52
2019-03-03T08:13:34.460Z,18.10
2019-03-03T08:16:03.160Z,12.53
2019-03-03T08:18:31.847Z,15.48
2019-03-03T08:21:00.758Z,14.87
2019-03-03T08:23:29.463Z,12.07
2019-03-03T08:25:58.213Z,17.02
2019-03-03T08:28:26.901Z,14.07
2019-03-03T08:30:56.796Z,13.98
2019-03-03T08:33:25.561Z,13.62
2019-03-03T08:35:54.242Z,13.65
2019-03-03T08:38:23.006Z,13.58
2019-03-03T08:40:51.744Z,15.70
2019-03-03T08:43:24.744Z,11.65
2019-03-03T08:45:55.059Z,13.38
2019-03-03T08:48:34.399Z,12.88
2019-03-03T08:51:04.699Z,13.18
2019-03-03T08:53:40.943Z,10.72
2019-03-03T08:56:11.251Z,10.15
2019-03-03T08:58:56.456Z,9.18
2019-03-03T09:03:59.535Z,9.30
2019-03-03T09:06:45.118Z,5.33
2019-03-03T09:09:16.241Z,5.30
2019-03-03T09:11:46.487Z,4.78
2019-03-03T09:14:16.760Z,7.00
2019-03-03T09:16:56.297Z,4.58
2019-03-03T09:19:35.376Z,5.22
2019-03-03T09:22:08.716Z,3.83
2019-03-03T09:24:41.958Z,4.20
2019-03-03T09:27:18.778Z,5.22
2019-03-03T09:29:55.105Z,5.45
2019-03-03T09:32:41.954Z,4.83
2019-03-03T09:35:14.903Z,5.62
2019-03-03T09:37:51.016Z,4.50
2019-03-03T09:40:38.042Z,4.28
2019-03-03T09:43:11.360Z,6.90
2019-03-03T09:45:41.643Z,7.22
2019-03-03T09:48:14.977Z,6.12
2019-03-03T09:50:50.937Z,4.12
2019-03-03T09:53:26.786Z,4.62
2019-03-03T09:56:00.083Z,5.33
2019-03-03T09:58:39.234Z,5.45
2019-03-03T10:01:12.396Z,4.15
2019-03-03T10:03:45.747Z,3.02
2019-03-03T10:06:21.365Z,4.50
2019-03-03T10:08:57.696Z,4.33
2019-03-03T10:11:28.014Z,3.77
2019-03-03T10:14:14.717Z,7.55
2019-03-03T10:16:56.871Z,3.67
2019-03-03T10:19:36.281Z,4.00
2019-03-03T10:22:09.590Z,2.33
2019-03-03T10:24:48.903Z,2.85
2019-03-03T10:27:19.168Z,4.17
2019-03-03T10:30:05.095Z,2.40
2019-03-03T10:32:47.521Z,3.33
2019-03-03T10:35:20.814Z,2.37
2019-03-03T10:37:51.067Z,2.45
2019-03-03T10:40:35.081Z,3.77
2019-03-03T10:43:05.510Z,2.35
2019-03-03T10:45:38.910Z,2.10
2019-03-03T10:48:21.554Z,2.92
2019-03-03T10:50:52.026Z,1.90
2019-03-03T10:53:31.683Z,2.37
2019-03-03T10:56:17.856Z,0.88
2019-03-03T10:58:57.480Z,1.67
2019-03-03T11:01:36.736Z,4.03
2019-03-03T11:04:07.060Z,1.70
2019-03-03T11:06:46.236Z,3.20
2019-03-03T11:09:25.484Z,0.65
2019-03-03T11:11:55.928Z,1.60
2019-03-03T11:14:42.415Z,0.30
2019-03-03T11:17:18.507Z,0.85
2019-03-03T11:20:05.181Z,2.22
2019-03-03T11:22:51.491Z,0.62
2019-03-03T11:25:30.693Z,0.10
2019-03-03T11:28:04.222Z,1.42
2019-03-03T11:30:50.734Z,1.15
2019-03-03T11:33:21.006Z,0.68
2019-03-03T11:36:08.055Z,1.00
2019-03-03T11:38:50.133Z,0.68
2019-03-03T11:41:29.492Z,0.50
2019-03-03T11:43:59.740Z,0.82
2019-03-03T11:46:39.241Z,1.30
2019-03-03T11:49:12.354Z,0.20
2019-03-03T11:51:51.592Z,0.78
2019-03-03T11:54:30.446Z,1.82
2019-03-03T11:57:03.537Z,0.30
2019-03-03T11:59:33.832Z,1.52
2019-03-03T12:02:20.279Z,1.50
2019-03-03T12:05:07.062Z,1.37
2019-03-03T12:07:44.515Z,2.75
2019-03-03T12:10:21.301Z,1.35
2019-03-03T12:12:51.626Z,2.10
2019-03-03T12:15:33.831Z,1.15
2019-03-03T12:18:11.730Z,1.55
2019-03-03T12:20:47.951Z,4.22
2019-03-03T12:23:27.076Z,1.15
2019-03-03T12:26:06.564Z,1.10
2019-03-03T12:28:42.709Z,1.32
2019-03-03T12:31:19.105Z,1.72
2019-03-03T12:33:49.427Z,1.77
2019-03-03T12:36:20.115Z,1.45
2019-03-03T12:38:50.380Z,1.20
2019-03-03T12:41:23.703Z,1.52
2019-03-03T12:44:03.037Z,1.85
2019-03-03T12:46:33.319Z,0.78
2019-03-03T12:49:09.427Z,1.65
2019-03-03T12:51:46.031Z,2.62
2019-03-03T12:54:25.287Z,2.35
2019-03-03T12:57:07.773Z,1.25
2019-03-03T12:59:53.127Z,2.22
2019-03-03T13:02:26.524Z,2.60
2019-03-03T13:05:11.790Z,2.47
2019-03-03T13:07:54.333Z,2.95
2019-03-03T13:10:35.522Z,1.15
2019-03-03T13:13:08.536Z,2.00
2019-03-03T13:15:47.727Z,0.47
2019-03-03T13:18:20.522Z,2.52
2019-03-03T13:21:02.673Z,2.35
2019-03-03T13:23:33.023Z,0.70
2019-03-03T13:26:03.348Z,1.95
2019-03-03T13:28:36.466Z,1.35
2019-03-03T13:31:16.184Z,1.00
2019-03-03T13:33:58.463Z,1.30
2019-03-03T13:36:31.754Z,1.72
2019-03-03T13:39:04.572Z,0.42
2019-03-03T13:41:35.015Z,0.75
2019-03-03T13:44:03.838Z,0.90
2019-03-03T13:46:32.526Z,2.70
2019-03-03T13:49:01.307Z,1.22
2019-03-03T13:51:30.101Z,1.45
2019-03-03T13:53:58.832Z,0.95
2019-03-03T13:56:27.527Z,1.37
2019-03-03T13:58:56.256Z,0.82
2019-03-03T14:01:25.223Z,1.30
2019-03-03T14:03:53.930Z,1.70
2019-03-03T14:06:22.745Z,0.42
2019-03-03T14:08:51.489Z,1.85
2019-03-03T14:11:30.700Z,1.20
2019-03-03T14:14:00.479Z,0.80
2019-03-03T14:16:29.171Z,0.78
2019-03-03T14:18:58.007Z,1.62
2019-03-03T14:21:26.906Z,1.32
2019-03-03T14:23:55.625Z,1.65
2019-03-03T14:26:24.384Z,0.53
2019-03-03T14:28:55.249Z,1.52
2019-03-03T14:31:23.837Z,1.85
2019-03-03T14:33:52.569Z,1.12
2019-03-03T14:36:21.270Z,2.27
2019-03-03T14:38:49.998Z,1.45
2019-03-03T14:41:19.396Z,3.60
2019-03-03T14:43:48.089Z,1.72
2019-03-03T14:46:16.773Z,1.27
2019-03-03T14:48:45.512Z,1.35
2019-03-03T14:51:14.299Z,1.70
2019-03-03T14:53:43.136Z,2.02
2019-03-03T14:56:11.856Z,1.62
2019-03-03T14:58:40.893Z,1.57
2019-03-03T15:01:09.635Z,1.47
2019-03-03T15:03:38.386Z,2.12
2019-03-03T15:06:07.187Z,2.65
2019-03-03T15:08:36.034Z,1.07
2019-03-03T15:11:05.097Z,2.50
2019-03-03T15:13:33.787Z,1.67
2019-03-03T15:16:02.466Z,2.83
2019-03-03T15:18:31.229Z,1.25
2019-03-03T15:21:00.109Z,2.30
2019-03-03T15:23:28.940Z,2.52
2019-03-03T15:25:57.791Z,1.95
2019-03-03T15:28:26.560Z,1.90
2019-03-03T15:30:55.483Z,2.52
2019-03-03T15:33:24.369Z,2.12
2019-03-03T15:35:53.030Z,1.77
2019-03-03T15:38:21.904Z,1.30
2019-03-03T15:40:50.635Z,1.67
2019-03-03T15:43:19.534Z,9.10
2019-03-03T15:45:48.421Z,9.38
2019-03-03T15:48:17.504Z,9.68
2019-03-03T15:50:46.459Z,12.20
2019-03-03T15:53:15.215Z,7.95
2019-03-03T15:55:43.940Z,5.47
2019-03-03T15:58:12.762Z,8.45
2019-03-03T16:00:42.435Z,9.38
2019-03-03T16:03:11.222Z,7.70
2019-03-03T16:05:40.284Z,10.60
2019-03-03T16:08:09.087Z,8.98
2019-03-03T16:10:37.976Z,12.70
2019-03-03T16:13:06.762Z,10.18
2019-03-03T16:15:35.627Z,8.05
2019-03-03T16:18:04.379Z,7.17
2019-03-03T16:20:33.074Z,7.58
2019-03-03T16:23:02.010Z,12.58
2019-03-03T16:25:30.833Z,7.65
2019-03-03T16:27:59.629Z,10.28
2019-03-03T16:30:28.542Z,7.42
2019-03-03T16:32:57.383Z,8.78
2019-03-03T16:35:26.132Z,3.75
2019-03-03T16:37:54.911Z,9.18
2019-03-03T16:40:25.778Z,9.35
2019-03-03T16:42:54.467Z,10.18
2019-03-03T16:45:23.219Z,9.60
2019-03-03T16:47:51.953Z,7.45
2019-03-03T16:50:22.218Z,8.18
2019-03-03T16:52:50.975Z,4.30
2019-03-03T16:55:20.870Z,7.75
2019-03-03T16:57:49.584Z,6.78
2019-03-03T17:00:25.652Z,5.17
2019-03-03T17:02:54.656Z,5.95
2019-03-03T17:05:27.955Z,7.55
2019-03-03T17:07:56.656Z,8.48
2019-03-03T17:10:25.518Z,8.93
2019-03-03T17:12:54.267Z,11.33
2019-03-03T17:15:24.569Z,11.03
2019-03-03T17:17:53.512Z,8.83
2019-03-03T17:20:22.405Z,8.43
2019-03-03T17:22:51.510Z,9.73
2019-03-03T17:25:26.129Z,7.37
2019-03-03T17:27:54.893Z,11.55
2019-03-03T17:30:24.858Z,9.15
2019-03-03T17:32:53.602Z,11.28
2019-03-03T17:35:22.343Z,6.50
2019-03-03T17:37:51.056Z,9.50
2019-03-03T17:40:25.865Z,9.38
2019-03-03T17:45:23.867Z,9.38
2019-03-03T17:47:52.522Z,12.30
2019-03-03T17:50:26.669Z,7.35
2019-03-03T17:52:55.479Z,5.33
2019-03-03T17:55:24.190Z,8.20
2019-03-03T17:57:52.874Z,9.33
2019-03-03T18:00:46.166Z,5.17
2019-03-03T18:03:15.336Z,6.12
2019-03-03T18:05:44.040Z,11.00
2019-03-03T18:08:14.363Z,7.30
2019-03-03T18:10:43.159Z,15.63
2019-03-03T18:13:12.107Z,12.63
2019-03-03T18:15:40.875Z,9.60
2019-03-03T18:18:09.563Z,9.83
2019-03-03T18:20:38.503Z,9.80
2019-03-03T18:23:07.266Z,9.75
2019-03-03T18:25:35.933Z,14.30
2019-03-03T18:28:04.640Z,12.55
2019-03-03T18:30:33.681Z,12.47
2019-03-03T18:33:02.400Z,6.87
2019-03-03T18:35:31.716Z,7.15
2019-03-03T18:38:00.463Z,9.08
2019-03-03T18:40:29.386Z,10.95
2019-03-03T18:42:58.120Z,9.83
2019-03-03T18:45:26.858Z,9.83
2019-03-03T18:47:55.646Z,13.38
2019-03-03T18:50:29.498Z,10.95
2019-03-03T18:52:59.925Z,15.75
2019-03-03T18:55:28.585Z,13.65
2019-03-03T18:57:57.356Z,14.07
2019-03-03T19:00:31.648Z,7.72
2019-03-03T19:03:00.394Z,5.75
2019-03-03T19:05:29.986Z,6.78
2019-03-03T19:07:58.759Z,12.58
2019-03-03T19:10:32.795Z,5.70
2019-03-03T19:13:01.480Z,4.62
2019-03-03T19:15:30.473Z,13.18
2019-03-03T19:17:59.346Z,14.85
2019-03-03T19:20:28.171Z,16.42
2019-03-03T19:22:56.983Z,9.30
2019-03-03T19:25:25.792Z,10.43
2019-03-03T19:27:54.503Z,11.95
2019-03-03T19:30:27.816Z,10.93
2019-03-03T19:33:02.290Z,8.90
2019-03-03T19:35:31.035Z,12.93
2019-03-03T19:37:59.782Z,9.85
2019-03-03T19:40:28.774Z,13.22
2019-03-03T19:42:57.466Z,10.40
2019-03-03T19:45:32.229Z,18.23
2019-03-03T19:48:01.084Z,16.48
2019-03-03T19:50:29.827Z,7.05
2019-03-03T19:52:58.516Z,7.78
2019-03-03T19:55:27.248Z,9.08
2019-03-03T19:57:55.930Z,11.30
2019-03-03T20:00:35.370Z,8.93
2019-03-03T20:03:00.981Z,12.50
2019-03-03T20:05:29.686Z,9.35
2019-03-03T20:07:58.831Z,10.98
2019-03-03T20:10:27.784Z,7.28
2019-03-03T20:12:56.678Z,12.50
2019-03-03T20:15:25.466Z,20.25
2019-03-03T20:17:54.215Z,9.25
2019-03-03T20:20:24.981Z,9.95
2019-03-03T20:22:53.797Z,16.57
2019-03-03T20:25:23.004Z,15.55
2019-03-03T20:27:52.477Z,16.12
2019-03-03T20:30:23.418Z,18.12
2019-03-03T20:32:52.931Z,7.35
2019-03-03T20:35:22.783Z,13.50
2019-03-03T20:37:52.194Z,15.35
2019-03-03T20:40:28.822Z,16.95
2019-03-03T20:42:58.049Z,10.48
2019-03-03T20:45:28.899Z,8.63
2019-03-03T20:47:58.702Z,8.20
2019-03-03T20:50:27.699Z,13.28
2019-03-03T20:52:58.716Z,11.83
2019-03-03T20:55:29.705Z,14.35
2019-03-03T20:57:58.888Z,12.37
2019-03-03T21:00:28.727Z,16.37
2019-03-03T21:02:57.469Z,16.70
2019-03-03T21:05:26.272Z,15.58
2019-03-03T21:07:57.673Z,17.40
2019-03-03T21:10:31.686Z,10.43
2019-03-03T21:13:00.409Z,11.28
2019-03-03T21:15:29.114Z,12.80
2019-03-03T21:17:57.871Z,15.00
2019-03-03T21:20:31.586Z,13.22
2019-03-03T21:23:00.774Z,8.23
2019-03-03T21:25:29.540Z,14.33
2019-03-03T21:27:59.656Z,13.18
2019-03-03T21:30:28.661Z,9.20
2019-03-03T21:32:57.440Z,17.05
2019-03-03T21:35:26.126Z,11.80
2019-03-03T21:37:54.961Z,18.23
2019-03-03T21:40:27.695Z,8.20
2019-03-03T21:42:59.207Z,15.45
2019-03-03T21:45:29.306Z,11.25
2019-03-03T21:47:58.168Z,17.92
2019-03-03T21:50:28.633Z,10.63
2019-03-03T21:52:57.357Z,9.60
2019-03-03T21:55:26.105Z,7.17
2019-03-03T21:57:55.257Z,4.75
2019-03-03T22:00:34.030Z,4.15
2019-03-03T22:03:02.829Z,5.85
2019-03-03T22:05:31.534Z,3.50
2019-03-03T22:08:00.969Z,5.45
2019-03-03T22:10:29.952Z,5.72
2019-03-03T22:13:00.351Z,4.30
2019-03-03T22:15:32.432Z,7.28
2019-03-03T22:18:01.281Z,6.30
2019-03-03T22:20:32.192Z,2.52
2019-03-03T22:23:01.684Z,5.55
2019-03-03T22:25:30.597Z,7.00
2019-03-03T22:27:59.555Z,4.35
2019-03-03T22:30:29.321Z,5.15
2019-03-03T22:32:58.764Z,3.95
2019-03-03T22:35:28.315Z,5.72
2019-03-03T22:37:59.592Z,6.58
2019-03-03T22:40:28.765Z,7.33
2019-03-03T22:42:58.153Z,8.00
2019-03-03T22:45:27.710Z,7.17
2019-03-03T22:47:58.020Z,5.83
2019-03-03T22:50:28.859Z,3.70
2019-03-03T22:53:01.337Z,5.45
2019-03-03T22:55:33.666Z,3.37
2019-03-03T22:58:02.775Z,2.35
2019-03-03T23:00:48.212Z,5.50
2019-03-03T23:03:32.790Z,3.60
2019-03-03T23:06:06.063Z,5.97
2019-03-03T23:08:38.790Z,5.17
2019-03-03T23:11:22.990Z,3.62
2019-03-03T23:14:00.926Z,2.98
2019-03-03T23:16:39.369Z,3.70
2019-03-03T23:19:26.826Z,2.85
2019-03-03T23:22:15.825Z,4.22
2019-03-03T23:25:25.357Z,5.45
2019-03-03T23:27:57.785Z,3.00
2019-03-03T23:30:27.398Z,3.00
2019-03-03T23:32:57.315Z,4.03
2019-03-03T23:35:26.824Z,1.90
2019-03-03T23:37:56.914Z,6.90
2019-03-03T23:40:25.940Z,6.00
2019-03-03T23:42:54.644Z,4.15
2019-03-03T23:45:23.391Z,5.62
2019-03-03T23:47:52.154Z,3.27
2019-03-03T23:50:20.863Z,5.50
2019-03-03T23:52:49.612Z,3.65
2019-03-03T23:55:18.361Z,6.35
2019-03-03T23:57:47.109Z,7.85
